Time;durP1;ratioP1;P1;durP2;ratioP2;P2;SDS_P1;SDS_P2;PMS_P1;PMS_P2;Temp;Humidity;BMP_temperature;BMP_pressure;BME280_temperature;BME280_humidity;BME280_pressure;Samples;Min_cycle;Max_cycle;Signal;HPM_P1;HPM_P2
2021/06/01 00:01:55;;;;;;;;;3.50;3.50;;;;;25.32;34.01;101160.19;4976776;28;45375;-45
2021/06/01 00:04:21;;;;;;;;;3.00;3.00;;;;;25.32;34.39;101159.38;4992167;28;45247;-47
2021/06/01 00:06:47;;;;;;;;;3.50;3.25;;;;;25.30;34.25;101154.03;4976439;28;45707;-45
2021/06/01 00:09:16;;;;;;;;;7.00;6.00;;;;;25.28;34.36;101153.38;4967147;28;45692;-47
2021/06/01 00:11:42;;;;;;;;;3.50;3.50;;;;;25.27;34.60;101151.66;4957436;28;45327;-46
2021/06/01 00:14:08;;;;;;;;;4.75;4.00;;;;;25.26;34.51;101163.69;4972290;28;45499;-42
2021/06/01 00:16:34;;;;;;;;;4.50;3.50;;;;;25.23;34.59;101158.59;4957255;28;45953;-43
2021/06/01 00:19:00;;;;;;;;;3.50;3.50;;;;;25.23;34.61;101153.09;4957322;28;45377;-43
2021/06/01 00:21:26;;;;;;;;;5.00;3.00;;;;;25.21;34.85;101151.56;4972078;28;45322;-44
2021/06/01 00:23:54;;;;;;;;;6.50;4.75;;;;;25.19;34.84;101142.63;4957366;28;45323;-44
2021/06/01 00:26:20;;;;;;;;;3.00;3.00;;;;;25.18;34.79;101150.03;4957167;28;45424;-44
2021/06/01 00:28:45;;;;;;;;;2.75;2.75;;;;;25.15;34.59;101145.78;4957154;28;45334;-45
2021/06/01 00:31:11;;;;;;;;;2.75;2.75;;;;;25.13;34.55;101134.13;4972134;28;45405;-42
2021/06/01 00:33:36;;;;;;;;;3.50;3.00;;;;;25.12;34.89;101139.78;4962182;28;45349;-43
2021/06/01 00:36:03;;;;;;;;;4.25;3.25;;;;;25.11;34.90;101138.09;4976237;28;45527;-46
2021/06/01 00:38:28;;;;;;;;;4.00;4.00;;;;;25.09;34.98;101142.94;4976598;28;45341;-44
2021/06/01 00:40:55;;;;;;;;;5.00;4.00;;;;;25.07;35.15;101134.00;4976730;28;45257;-43
2021/06/01 00:43:21;;;;;;;;;4.25;3.00;;;;;25.08;35.01;101149.47;4976521;28;45255;-43
2021/06/01 00:45:46;;;;;;;;;3.75;2.75;;;;;25.06;35.18;101146.88;4976577;28;45794;-43
2021/06/01 00:48:12;;;;;;;;;3.25;3.25;;;;;25.03;34.92;101144.53;4979997;28;45186;-45
2021/06/01 00:50:38;;;;;;;;;4.50;4.50;;;;;25.02;35.18;101138.16;4994594;28;45324;-45
2021/06/01 00:53:06;;;;;;;;;5.00;3.50;;;;;24.99;35.06;101135.78;4979985;28;45363;-47
2021/06/01 00:55:32;;;;;;;;;4.25;4.25;;;;;25.00;35.18;101139.41;4979727;28;46004;-42
2021/06/01 00:57:57;;;;;;;;;5.25;4.00;;;;;24.97;35.19;101124.13;4979545;28;45468;-43
2021/06/01 01:03:09;;;;;;;;;3.00;3.00;;;;;24.95;35.38;101128.97;4979721;28;45385;-46
2021/06/01 01:05:37;;;;;;;;;4.25;3.25;;;;;24.95;35.11;101133.59;4979460;28;45329;-42
2021/06/01 01:10:49;;;;;;;;;4.00;3.00;;;;;24.92;35.12;101134.84;4960095;28;45371;-42
2021/06/01 01:13:16;;;;;;;;;3.00;3.00;;;;;24.91;35.29;101124.00;4960165;28;45540;-43
2021/06/01 01:15:42;;;;;;;;;5.00;4.00;;;;;24.89;35.55;101121.47;4959984;28;45938;-43
2021/06/01 01:18:14;;;;;;;;;4.25;4.00;;;;;24.87;35.35;101115.31;4960013;28;45580;-44
2021/06/01 01:20:57;;;;;;;;;5.00;4.00;;;;;24.85;35.47;101111.88;4959673;28;45333;-44
2021/06/01 01:23:28;;;;;;;;;4.00;4.00;;;;;24.83;35.42;101111.22;4964688;28;45263;-45
2021/06/01 01:26:03;;;;;;;;;5.75;3.50;;;;;24.82;35.36;101120.50;4979348;28;45353;-42
2021/06/01 01:28:32;;;;;;;;;4.00;4.00;;;;;24.81;35.67;101113.31;4979357;28;45563;-43
2021/06/01 01:31:02;;;;;;;;;3.00;3.00;;;;;24.79;35.41;101109.91;4979322;28;45410;-45
2021/06/01 01:33:34;;;;;;;;;4.25;2.75;;;;;24.78;35.63;101114.50;4978801;28;45425;-44
2021/06/01 01:36:03;;;;;;;;;4.00;3.75;;;;;24.77;35.43;101114.72;4979038;28;46245;-44
2021/06/01 01:38:30;;;;;;;;;4.00;3.75;;;;;24.76;35.64;101107.50;4979244;28;45377;-43
2021/06/01 01:41:04;;;;;;;;;3.00;2.50;;;;;24.75;35.32;101100.31;4978913;28;45462;-42
2021/06/01 01:43:34;;;;;;;;;2.50;2.00;;;;;24.73;35.33;101106.00;4979177;28;45410;-47
2021/06/01 01:49:02;;;;;;;;;3.75;3.00;;;;;24.69;35.77;101104.63;4977168;28;45652;-43
2021/06/01 01:51:36;;;;;;;;;2.50;2.50;;;;;24.68;35.82;101102.91;4979009;28;45538;-43
2021/06/01 01:54:08;;;;;;;;;2.75;2.25;;;;;24.68;35.93;101094.69;4970231;28;45351;-44
2021/06/01 01:56:39;;;;;;;;;4.50;4.00;;;;;24.65;35.68;101090.41;4976287;28;45412;-42
2021/06/01 01:59:08;;;;;;;;;2.50;2.50;;;;;24.65;35.80;101089.53;4977506;28;45709;-43
2021/06/01 02:01:35;;;;;;;;;3.00;3.00;;;;;24.63;35.73;101087.00;4978217;28;45480;-43
2021/06/01 02:04:02;;;;;;;;;4.00;3.25;;;;;24.62;35.84;101090.78;4977690;28;45421;-42
2021/06/01 02:06:29;;;;;;;;;4.75;3.00;;;;;24.62;35.95;101088.03;4978032;28;46004;-42
2021/06/01 02:08:55;;;;;;;;;5.00;4.00;;;;;24.61;35.62;101089.06;5009429;28;45486;-43
2021/06/01 02:11:21;;;;;;;;;5.50;4.00;;;;;24.59;35.64;101082.06;4978211;28;45472;-43
2021/06/01 02:14:00;;;;;;;;;4.00;3.25;;;;;24.58;35.65;101077.59;4977372;28;45262;-45
2021/06/01 02:16:26;;;;;;;;;3.75;3.75;;;;;24.56;35.66;101086.00;4978013;28;45408;-42
2021/06/01 02:18:52;;;;;;;;;5.00;4.00;;;;;24.53;35.83;101079.00;4977702;28;45270;-45
2021/06/01 02:21:34;;;;;;;;;3.75;3.75;;;;;24.52;35.71;101076.47;4977985;28;45397;-45
2021/06/01 02:24:09;;;;;;;;;6.00;4.25;;;;;24.51;35.73;101086.56;4977750;28;45349;-44
2021/06/01 02:26:46;;;;;;;;;4.00;4.00;;;;;24.50;35.91;101082.13;4977863;28;45477;-44
2021/06/01 02:29:21;;;;;;;;;3.50;3.50;;;;;24.47;35.90;101070.66;4977905;28;45555;-43
2021/06/01 02:31:50;;;;;;;;;5.00;4.00;;;;;24.47;35.94;101076.97;4977783;28;45349;-46
2021/06/01 02:34:18;;;;;;;;;3.75;3.75;;;;;24.46;35.96;101080.78;4977250;28;45409;-43
2021/06/01 02:36:45;;;;;;;;;3.25;3.25;;;;;24.46;35.89;101077.19;4977674;28;45421;-47
2021/06/01 02:39:11;;;;;;;;;5.75;3.00;;;;;24.44;36.06;101068.28;4978079;28;45569;-43
2021/06/01 02:41:37;;;;;;;;;4.50;3.25;;;;;24.44;36.09;101076.50;4977155;28;45286;-46
2021/06/01 02:44:04;;;;;;;;;4.00;4.00;;;;;24.41;36.09;101064.84;4978211;28;45167;-45
2021/06/01 02:46:30;;;;;;;;;3.00;3.00;;;;;24.40;35.94;101074.13;4977980;28;45333;-45
2021/06/01 02:48:56;;;;;;;;;5.00;4.00;;;;;24.40;36.16;101067.78;4977723;28;45298;-41
2021/06/01 02:51:22;;;;;;;;;2.50;1.50;;;;;24.39;36.03;101066.94;4978033;28;45394;-43
2021/06/01 02:53:53;;;;;;;;;4.00;4.00;;;;;24.38;36.21;101070.72;4977920;28;45310;-41
2021/06/01 02:56:20;;;;;;;;;3.75;3.75;;;;;24.37;36.16;101066.28;4996392;28;45482;-43
2021/06/01 02:58:48;;;;;;;;;2.75;2.75;;;;;24.36;36.31;101069.19;4970519;28;45654;-46
2021/06/01 03:01:18;;;;;;;;;3.00;3.00;;;;;24.35;36.29;101062.00;4977969;28;45508;-41
2021/06/01 03:03:48;;;;;;;;;4.00;3.00;;;;;24.34;36.29;101057.53;4969246;28;45506;-45
2021/06/01 03:06:22;;;;;;;;;4.75;2.25;;;;;24.33;36.43;101062.19;4959570;28;46236;-42
2021/06/01 03:08:48;;;;;;;;;3.50;2.50;;;;;24.32;36.28;101065.97;4963827;28;45453;-47
2021/06/01 03:11:15;;;;;;;;;4.25;4.25;;;;;24.31;36.41;101061.50;4976758;28;45544;-42
2021/06/01 03:13:41;;;;;;;;;3.00;3.00;;;;;24.28;36.18;101059.13;4977925;28;45500;-43
2021/06/01 03:16:07;;;;;;;;;2.25;2.25;;;;;24.27;36.49;101051.94;4977496;28;46197;-42
2021/06/01 03:18:33;;;;;;;;;3.75;3.75;;;;;24.27;36.40;101054.66;4977745;28;45303;-42
2021/06/01 03:20:59;;;;;;;;;3.00;3.00;;;;;24.27;36.62;101051.09;4977648;28;45378;-42
2021/06/01 03:23:25;;;;;;;;;3.00;3.00;;;;;24.25;36.54;101057.63;4977683;28;45275;-41
2021/06/01 03:25:51;;;;;;;;;4.00;4.00;;;;;24.23;36.29;101054.19;4977524;28;45294;-46
2021/06/01 03:28:19;;;;;;;;;3.25;2.75;;;;;24.21;36.53;101049.94;4977551;28;45314;-43
2021/06/01 03:30:45;;;;;;;;;2.75;2.75;;;;;24.19;36.40;101052.84;4977357;28;45385;-45
2021/06/01 03:33:11;;;;;;;;;5.00;3.00;;;;;24.20;36.75;101054.56;4977512;28;45318;-42
2021/06/01 03:35:37;;;;;;;;;2.50;2.25;;;;;24.18;36.75;101039.31;4977321;28;45207;-43
2021/06/01 03:38:03;;;;;;;;;2.00;2.00;;;;;24.19;36.66;101052.00;4977365;28;45262;-43
2021/06/01 03:40:29;;;;;;;;;3.00;3.00;;;;;24.18;36.56;101047.56;5009109;28;45382;-45
2021/06/01 03:42:55;;;;;;;;;3.00;3.00;;;;;24.16;36.73;101047.75;4977304;28;45398;-42
2021/06/01 03:45:23;;;;;;;;;4.75;4.25;;;;;24.15;36.85;101039.69;4976973;28;45585;-46
2021/06/01 03:47:48;;;;;;;;;2.75;1.75;;;;;24.15;36.52;101045.16;4976921;28;45705;-43
2021/06/01 03:50:14;;;;;;;;;2.25;1.00;;;;;24.14;36.60;101043.47;4977230;28;45548;-45
2021/06/01 03:52:40;;;;;;;;;3.00;2.25;;;;;24.14;36.83;101048.94;4976963;28;45388;-44
2021/06/01 03:55:06;;;;;;;;;3.00;3.00;;;;;24.13;37.02;101047.22;4976883;28;45869;-41
2021/06/01 03:57:31;;;;;;;;;1.50;1.50;;;;;24.13;36.96;101047.22;4976838;28;45547;-44
2021/06/01 03:59:58;;;;;;;;;2.75;2.75;;;;;24.13;37.00;101049.97;4976852;28;45401;-44
2021/06/01 04:02:23;;;;;;;;;4.00;2.50;;;;;24.11;36.91;101044.69;4977221;28;45342;-44
2021/06/01 04:04:49;;;;;;;;;4.00;2.50;;;;;24.09;36.95;101036.66;4976873;28;45833;-42
2021/06/01 04:07:15;;;;;;;;;5.00;3.00;;;;;24.10;37.06;101049.34;4991359;28;45917;-47
2021/06/01 04:09:41;;;;;;;;;3.00;3.00;;;;;24.09;37.05;101044.88;4963484;28;45551;-46
2021/06/01 04:12:07;;;;;;;;;2.25;2.25;;;;;24.08;37.09;101053.28;4957489;28;45255;-43
2021/06/01 04:14:33;;;;;;;;;5.00;3.25;;;;;24.06;37.15;101056.22;4957189;28;45367;-45
2021/06/01 04:16:58;;;;;;;;;3.00;3.00;;;;;24.05;37.18;101057.25;4957232;28;45414;-42
2021/06/01 04:19:24;;;;;;;;;3.25;3.25;;;;;24.05;37.28;101048.13;4957421;28;45322;-42
2021/06/01 04:21:52;;;;;;;;;3.00;3.00;;;;;24.04;37.30;101050.03;4957132;28;45177;-45
2021/06/01 04:24:18;;;;;;;;;2.75;2.75;;;;;24.03;37.37;101045.59;4957120;28;45236;-42
2021/06/01 04:26:43;;;;;;;;;2.75;2.75;;;;;24.03;37.08;101042.84;4957272;28;45358;-44
2021/06/01 04:29:08;;;;;;;;;2.50;2.50;;;;;24.03;37.29;101044.75;4957168;28;45389;-46
2021/06/01 04:31:34;;;;;;;;;3.50;3.50;;;;;24.03;37.46;101040.09;4957217;28;45383;-42
2021/06/01 04:33:59;;;;;;;;;2.50;2.00;;;;;24.03;37.48;101042.84;4957077;28;46164;-43
2021/06/01 04:36:25;;;;;;;;;2.00;2.00;;;;;24.03;37.41;101042.00;4957144;28;45291;-42
2021/06/01 04:38:52;;;;;;;;;2.75;2.75;;;;;24.02;37.53;101037.56;4957203;28;45408;-47
2021/06/01 04:41:18;;;;;;;;;2.00;2.00;;;;;24.00;37.80;101034.13;4957248;28;45307;-42
2021/06/01 04:43:44;;;;;;;;;4.00;3.00;;;;;24.00;37.57;101043.19;4965499;28;45275;-42
2021/06/01 04:46:09;;;;;;;;;2.75;2.75;;;;;24.00;37.70;101037.72;4976113;28;45263;-41
2021/06/01 04:48:35;;;;;;;;;2.00;2.00;;;;;24.00;37.64;101042.38;4977145;28;45458;-40
2021/06/01 04:51:00;;;;;;;;;3.00;3.00;;;;;23.99;37.60;101041.50;4976352;28;45267;-43
2021/06/01 04:53:26;;;;;;;;;3.00;3.00;;;;;23.99;37.58;101038.75;4976044;28;45822;-41
2021/06/01 04:55:51;;;;;;;;;3.00;3.00;;;;;23.99;37.80;101040.66;4976373;28;45342;-43
2021/06/01 04:58:17;;;;;;;;;2.50;2.50;;;;;23.99;37.82;101030.53;4975885;28;45340;-43
2021/06/01 05:00:42;;;;;;;;;3.00;3.00;;;;;23.98;37.66;101034.31;4976128;28;45329;-42
2021/06/01 05:03:08;;;;;;;;;2.25;2.00;;;;;23.97;37.61;101029.84;4975967;28;45378;-43
2021/06/01 05:05:33;;;;;;;;;3.00;3.00;;;;;23.97;37.82;101029.84;4976152;28;45433;-45
2021/06/01 05:07:59;;;;;;;;;2.00;2.00;;;;;23.98;37.71;101033.47;4976117;28;45464;-44
2021/06/01 05:10:24;;;;;;;;;2.00;2.00;;;;;23.97;37.89;101031.75;4956997;28;45410;-43
2021/06/01 05:12:50;;;;;;;;;2.00;2.00;;;;;23.97;37.88;101026.25;4956310;28;46571;-41
2021/06/01 05:15:15;;;;;;;;;3.50;2.00;;;;;23.97;37.81;101027.09;4956508;28;45453;-42
2021/06/01 05:17:41;;;;;;;;;2.25;2.25;;;;;23.97;38.00;101023.53;4956707;28;45430;-42
2021/06/01 05:20:08;;;;;;;;;3.75;3.75;;;;;23.96;37.96;101025.44;4956616;28;45449;-43
2021/06/01 05:22:33;;;;;;;;;2.50;2.00;;;;;23.94;37.82;101011.00;4955266;28;45977;-45
2021/06/01 05:24:59;;;;;;;;;2.00;2.00;;;;;23.95;38.07;101016.31;4956341;28;45385;-43
2021/06/01 05:27:25;;;;;;;;;5.00;3.75;;;;;23.93;37.95;101015.63;4956401;28;45322;-41
2021/06/01 05:29:54;;;;;;;;;4.75;4.25;;;;;23.90;37.89;101012.41;4970765;28;45294;-42
2021/06/01 05:35:06;;;;;;;;;3.00;3.00;;;;;23.89;38.10;101016.16;4959721;28;45565;-43
2021/06/01 05:37:35;;;;;;;;;3.75;3.75;;;;;23.92;38.03;101018.56;4972622;28;45494;-45
2021/06/01 05:40:02;;;;;;;;;2.50;2.50;;;;;23.90;38.00;101017.88;4973572;28;45707;-42
2021/06/01 05:42:28;;;;;;;;;3.50;3.50;;;;;23.91;38.22;101028.66;4974031;28;45894;-45
2021/06/01 05:44:53;;;;;;;;;5.00;5.00;;;;;23.90;38.01;101012.41;4978270;28;45393;-47
2021/06/01 05:47:19;;;;;;;;;5.50;3.25;;;;;23.89;38.01;101018.91;4978496;28;45665;-42
2021/06/01 05:49:44;;;;;;;;;3.00;3.00;;;;;23.88;37.89;101011.72;4978036;28;45275;-42
2021/06/01 05:52:11;;;;;;;;;7.00;2.00;;;;;23.87;37.90;101007.28;4978133;28;45958;-41
2021/06/01 05:54:37;;;;;;;;;5.25;3.75;;;;;23.87;38.18;101013.63;4978106;28;45404;-42
2021/06/01 05:57:03;;;;;;;;;7.00;4.25;;;;;23.83;38.21;101006.78;4978131;28;45389;-42
2021/06/01 05:59:29;;;;;;;;;7.00;5.00;;;;;23.83;37.85;101008.66;4976600;28;45509;-44
2021/06/01 06:01:54;;;;;;;;;5.00;4.00;;;;;23.85;37.91;101010.22;4977430;28;45997;-43
2021/06/01 06:04:20;;;;;;;;;4.00;4.00;;;;;23.86;37.89;101006.44;4978157;28;45571;-42
2021/06/01 06:06:46;;;;;;;;;4.75;3.00;;;;;23.86;37.93;101011.91;4978286;28;45472;-42
2021/06/01 06:09:12;;;;;;;;;5.25;3.00;;;;;23.86;37.91;101006.44;4968413;28;45384;-43
2021/06/01 06:11:37;;;;;;;;;4.25;4.25;;;;;23.86;38.01;101002.81;4956877;28;45346;-42
2021/06/01 06:14:03;;;;;;;;;4.00;4.00;;;;;23.86;37.96;101003.69;4958698;28;45359;-42
2021/06/01 06:16:34;;;;;;;;;4.25;4.25;;;;;23.86;37.91;101008.31;4958502;28;45906;-42
2021/06/01 06:18:59;;;;;;;;;6.25;3.00;;;;;23.85;37.80;101012.06;4958543;28;45376;-45
2021/06/01 06:21:25;;;;;;;;;2.50;2.50;;;;;23.84;38.10;101002.16;4957717;28;46108;-43
2021/06/01 06:23:52;;;;;;;;;3.00;3.00;;;;;23.83;37.97;101003.19;4968428;28;45856;-43
2021/06/01 06:26:18;;;;;;;;;3.25;3.25;;;;;23.87;37.89;101010.00;4978364;28;45362;-43
2021/06/01 06:28:43;;;;;;;;;5.00;4.25;;;;;23.88;37.62;101009.84;4978530;28;45239;-42
2021/06/01 06:31:09;;;;;;;;;4.00;4.00;;;;;23.89;37.95;101007.94;4978181;28;45251;-43
2021/06/01 06:33:34;;;;;;;;;6.00;3.25;;;;;23.90;37.94;101004.16;4978075;28;45216;-43
2021/06/01 06:36:00;;;;;;;;;3.75;2.75;;;;;23.90;37.80;101001.44;4992636;28;45369;-42
2021/06/01 06:38:26;;;;;;;;;5.25;4.00;;;;;23.90;37.95;101002.28;4977217;28;45517;-43
2021/06/01 06:43:29;;;;;;;;;4.25;3.75;;;;;23.91;37.83;101001.22;4976763;28;45661;-42
2021/06/01 06:45:55;;;;;;;;;4.00;4.00;;;;;23.92;37.93;100996.63;4977981;28;45196;-42
2021/06/01 06:48:21;;;;;;;;;3.00;3.00;;;;;23.93;37.73;100996.44;4977894;28;45237;-43
2021/06/01 06:50:46;;;;;;;;;3.50;3.50;;;;;23.94;38.00;100994.56;4977622;28;45342;-45
2021/06/01 06:53:12;;;;;;;;;4.50;3.50;;;;;23.93;37.98;101001.06;4976383;28;45359;-44
2021/06/01 06:55:37;;;;;;;;;4.50;3.50;;;;;23.94;38.01;101005.53;4977987;28;45427;-44
2021/06/01 06:58:03;;;;;;;;;3.25;3.25;;;;;23.94;37.95;100994.56;4977933;28;45240;-42
2021/06/01 07:00:30;;;;;;;;;3.00;3.00;;;;;23.92;37.94;100997.47;4977376;28;45228;-42
2021/06/01 07:02:55;;;;;;;;;3.50;3.50;;;;;23.93;37.95;100999.16;4977941;28;45758;-42
2021/06/01 07:05:21;;;;;;;;;3.00;3.00;;;;;23.93;37.67;100990.09;4977889;28;45278;-42
2021/06/01 07:07:51;;;;;;;;;3.25;3.25;;;;;23.95;37.82;100990.78;4977327;28;45347;-44
2021/06/01 07:10:18;;;;;;;;;3.75;3.50;;;;;23.96;37.64;100995.25;4992037;28;45476;-42
2021/06/01 07:12:44;;;;;;;;;3.00;3.00;;;;;23.96;37.59;100987.03;4976162;28;45691;-43
2021/06/01 07:15:13;;;;;;;;;4.25;4.25;;;;;23.98;37.74;100992.31;4977757;28;45495;-42
2021/06/01 07:17:41;;;;;;;;;3.00;3.00;;;;;23.98;37.50;100993.16;4977527;28;45312;-42
2021/06/01 07:20:08;;;;;;;;;4.50;4.25;;;;;23.99;37.50;100985.81;4977523;28;45930;-45
2021/06/01 07:22:34;;;;;;;;;4.00;4.00;;;;;23.99;37.30;100986.66;4977226;28;45499;-43
2021/06/01 07:25:00;;;;;;;;;5.25;5.25;;;;;23.99;37.44;100972.09;4992611;28;45429;-43
2021/06/01 07:27:26;;;;;;;;;6.25;4.75;;;;;24.00;37.24;100969.16;4976343;28;45314;-46
2021/06/01 07:29:52;;;;;;;;;6.50;6.50;;;;;24.01;37.42;100975.50;4976626;28;45496;-48
2021/06/01 07:32:18;;;;;;;;;7.00;6.50;;;;;24.02;37.34;100967.09;4977399;28;45287;-44
2021/06/01 07:34:43;;;;;;;;;7.25;7.25;;;;;24.03;37.08;100968.78;4977398;28;45384;-44
2021/06/01 07:37:09;;;;;;;;;6.50;6.00;;;;;24.05;37.07;100969.47;4976806;28;45244;-44
2021/06/01 07:39:34;;;;;;;;;7.25;6.25;;;;;24.04;37.36;100956.78;4977168;28;45381;-49
2021/06/01 07:42:00;;;;;;;;;6.75;5.75;;;;;24.06;37.08;100965.69;4977266;28;45173;-44
2021/06/01 07:44:25;;;;;;;;;7.75;6.75;;;;;24.06;37.09;100962.94;4977321;28;45251;-43
2021/06/01 07:46:51;;;;;;;;;7.75;6.00;;;;;24.07;37.08;100961.91;4976854;28;45369;-47
2021/06/01 07:49:17;;;;;;;;;7.00;7.00;;;;;24.08;37.05;100963.63;4977023;28;45876;-43
2021/06/01 07:51:43;;;;;;;;;5.00;5.00;;;;;24.08;37.17;100965.50;4976811;28;45476;-43
2021/06/01 07:54:09;;;;;;;;;7.00;5.75;;;;;24.09;36.90;100957.09;4977234;28;45228;-44
2021/06/01 07:56:35;;;;;;;;;7.25;6.75;;;;;24.13;36.98;100959.47;4976413;28;45521;-46
2021/06/01 07:59:00;;;;;;;;;5.50;5.50;;;;;24.13;36.90;100960.31;4964626;28;45918;-42
2021/06/01 08:01:26;;;;;;;;;4.75;4.75;;;;;24.15;36.86;100963.75;4976997;28;45441;-45
2021/06/01 08:03:52;;;;;;;;;5.25;4.50;;;;;24.16;36.77;100959.97;4976729;28;45417;-44
2021/06/01 08:06:17;;;;;;;;;7.00;5.75;;;;;24.18;36.83;100957.03;4974375;28;45409;-43
2021/06/01 08:08:43;;;;;;;;;5.00;5.00;;;;;24.19;37.18;100953.25;4965690;28;45795;-42
2021/06/01 08:11:08;;;;;;;;;7.00;5.50;;;;;24.19;36.74;100947.75;4974100;28;45488;-43
2021/06/01 08:13:34;;;;;;;;;6.00;5.00;;;;;24.22;36.79;100941.91;4975216;28;45510;-46
2021/06/01 08:16:03;;;;;;;;;6.50;5.75;;;;;24.23;36.87;100940.88;4975739;28;45743;-41
2021/06/01 08:18:34;;;;;;;;;5.00;5.00;;;;;24.25;36.76;100938.81;4975379;28;46172;-41
2021/06/01 08:23:31;;;;;;;;;6.25;5.00;;;;;24.28;36.77;100926.59;4975896;28;45435;-42
2021/06/01 08:25:57;;;;;;;;;8.50;7.75;;;;;24.28;36.98;100919.19;4975111;28;45540;-44
2021/06/01 08:28:23;;;;;;;;;4.25;4.25;;;;;24.30;36.75;100922.63;4991903;28;46263;-42
2021/06/01 08:30:49;;;;;;;;;5.00;5.00;;;;;24.33;36.92;100914.03;4958203;28;45382;-43
2021/06/01 08:33:14;;;;;;;;;6.25;6.25;;;;;24.33;36.74;100910.41;4975737;28;45448;-40
2021/06/01 08:35:40;;;;;;;;;5.00;5.00;;;;;24.34;37.08;100907.50;4975874;28;45362;-41
2021/06/01 08:38:05;;;;;;;;;4.00;3.75;;;;;24.39;36.92;100912.41;4973487;28;45979;-45
2021/06/01 08:40:31;;;;;;;;;5.50;3.75;;;;;24.40;36.80;100914.97;4971123;28;46196;-48
2021/06/01 08:42:56;;;;;;;;;5.75;5.25;;;;;24.44;37.31;100912.72;4971519;28;45539;-45
2021/06/01 08:45:22;;;;;;;;;5.50;5.50;;;;;24.47;37.67;100916.97;4969944;28;45531;-42
2021/06/01 08:47:49;;;;;;;;;6.50;5.00;;;;;24.50;37.49;100911.09;4975160;28;45961;-49
2021/06/01 08:50:15;;;;;;;;;6.00;6.00;;;;;24.56;37.80;100910.34;4975431;28;45321;-45
2021/06/01 08:52:42;;;;;;;;;6.00;6.00;;;;;24.61;37.62;100902.41;4975929;28;45472;-49
2021/06/01 08:55:10;;;;;;;;;4.25;4.25;;;;;24.62;37.34;100897.75;4975808;28;45431;-45
2021/06/01 08:57:37;;;;;;;;;4.25;4.00;;;;;24.67;37.62;100901.66;4974153;28;45473;-45
2021/06/01 09:00:09;;;;;;;;;6.00;5.50;;;;;24.71;37.77;100903.00;4975472;28;46243;-50
2021/06/01 09:02:35;;;;;;;;;6.75;4.00;;;;;24.73;37.86;100889.09;4974947;28;45548;-48
2021/06/01 09:05:05;;;;;;;;;5.75;5.75;;;;;24.78;37.53;100891.25;4975444;28;45457;-46
2021/06/01 09:21:14;;;;;;;;;4.75;4.25;;;;;25.00;37.27;100892.19;4978979;28;45512;-45
2021/06/01 09:23:49;;;;;;;;;4.00;4.00;;;;;25.05;37.43;100888.84;4978619;28;46654;-50
2021/06/01 09:26:43;;;;;;;;;6.00;5.00;;;;;25.07;37.35;100884.88;4979091;28;45678;-44
2021/06/01 09:29:09;;;;;;;;;7.00;5.50;;;;;25.10;37.38;100884.50;4978012;28;45719;-49
2021/06/01 09:31:34;;;;;;;;;6.00;6.00;;;;;25.13;36.99;100881.38;4988473;28;45422;-42
2021/06/01 09:34:00;;;;;;;;;6.25;5.50;;;;;25.15;36.91;100879.28;4995575;28;45322;-49
2021/06/01 09:36:25;;;;;;;;;5.00;4.00;;;;;25.19;37.13;100878.88;4998455;28;45388;-55
2021/06/01 09:38:51;;;;;;;;;4.00;4.00;;;;;25.21;36.89;100877.66;4998243;28;45472;-48
2021/06/01 09:41:27;;;;;;;;;5.00;4.75;;;;;25.25;36.85;100878.09;4996898;28;45579;-46
2021/06/01 09:43:56;;;;;;;;;8.25;5.00;;;;;25.27;36.64;100878.78;4997061;28;45420;-46
2021/06/01 09:46:27;;;;;;;;;6.00;5.00;;;;;25.29;36.92;100871.19;4997710;28;45476;-49
2021/06/01 09:49:16;;;;;;;;;5.00;5.00;;;;;25.30;36.41;100870.97;5013354;28;47272;-45
2021/06/01 09:51:52;;;;;;;;;4.75;4.25;;;;;25.32;36.12;100866.16;4997053;28;45563;-42
2021/06/01 09:54:33;;;;;;;;;6.00;4.75;;;;;25.32;36.27;100873.56;4997293;28;45420;-46
2021/06/01 09:57:01;;;;;;;;;6.75;5.75;;;;;25.35;36.12;100875.06;4997258;28;45557;-49
2021/06/01 09:59:28;;;;;;;;;5.00;5.00;;;;;25.36;36.15;100868.50;4991356;28;46186;-44
2021/06/01 10:01:54;;;;;;;;;7.50;5.00;;;;;25.38;36.21;100869.19;4977730;28;45668;-48
2021/06/01 10:04:27;;;;;;;;;3.50;3.25;;;;;25.41;35.94;100866.91;4997364;28;45440;-50
2021/06/01 10:06:54;;;;;;;;;7.75;5.00;;;;;25.44;36.15;100865.66;4997776;28;45387;-45
2021/06/01 10:09:21;;;;;;;;;5.00;5.00;;;;;25.45;36.00;100870.97;4987023;28;46302;-47
2021/06/01 10:11:58;;;;;;;;;6.25;6.00;;;;;25.47;35.98;100871.59;4982654;28;45769;-44
2021/06/01 10:14:25;;;;;;;;;5.00;4.00;;;;;25.49;36.07;100862.31;4997979;28;45464;-44
2021/06/01 10:16:52;;;;;;;;;6.75;4.50;;;;;25.54;36.05;100865.34;4997615;28;45365;-49
2021/06/01 10:19:18;;;;;;;;;4.50;4.50;;;;;25.54;36.09;100857.09;4997299;28;45407;-44
2021/06/01 10:21:45;;;;;;;;;5.00;5.00;;;;;25.57;36.13;100854.78;4997567;28;45234;-46
2021/06/01 10:24:14;;;;;;;;;4.00;4.00;;;;;25.61;35.94;100847.88;4997510;28;45325;-46
2021/06/01 10:26:43;;;;;;;;;6.00;5.00;;;;;25.64;35.86;100852.09;4997211;28;45482;-45
2021/06/01 10:29:08;;;;;;;;;6.25;5.00;;;;;25.65;35.77;100837.31;5012883;28;45297;-48
2021/06/01 10:31:35;;;;;;;;;5.00;5.00;;;;;25.70;35.64;100845.84;4996110;28;45432;-48
2021/06/01 10:34:01;;;;;;;;;5.75;5.25;;;;;25.70;35.70;100825.72;4997731;28;45473;-47
2021/06/01 10:50:07;;;;;;;;;4.75;4.75;;;;;25.91;35.30;100827.59;4977545;28;45226;-50
2021/06/01 10:52:32;;;;;;;;;3.50;3.00;;;;;25.93;35.29;100823.59;4984042;28;45505;-48
2021/06/01 10:55:01;;;;;;;;;4.50;4.50;;;;;25.97;35.17;100817.72;4996692;28;45555;-44
2021/06/01 10:57:58;;;;;;;;;6.50;5.00;;;;;26.01;35.23;100817.09;4993271;28;45422;-49
2021/06/01 11:03:11;;;;;;;;;5.00;5.00;;;;;26.06;34.95;100808.25;4995979;28;45352;-50
2021/06/01 11:05:58;;;;;;;;;6.00;5.00;;;;;26.11;34.98;100816.75;4996841;28;45475;-51
2021/06/01 11:08:36;;;;;;;;;4.00;4.00;;;;;26.14;35.40;100816.38;4993706;28;45508;-45
2021/06/01 11:11:28;;;;;;;;;6.00;5.00;;;;;26.20;35.27;100821.06;4996759;28;47403;-46
2021/06/01 11:13:58;;;;;;;;;4.25;4.25;;;;;26.22;34.72;100816.22;4992991;28;45484;-44
2021/06/01 11:16:24;;;;;;;;;5.00;4.50;;;;;26.26;34.92;100807.53;4995989;28;45472;-47
2021/06/01 11:19:02;;;;;;;;;6.00;5.75;;;;;26.29;34.75;100810.75;4996377;28;45463;-43
2021/06/01 11:35:19;;;;;;;;;6.00;4.75;;;;;26.52;34.95;100801.34;4996385;28;45555;-47
2021/06/01 11:38:35;;;;;;;;;5.25;5.25;;;;;26.54;34.58;100799.22;4996323;28;45401;-45
2021/06/01 11:43:10;;;;;;;;;6.00;6.00;;;;;26.62;34.83;100785.28;4994868;28;45952;-50
2021/06/01 11:45:42;;;;;;;;;4.00;4.00;;;;;26.67;34.48;100782.78;4995758;28;45675;-50
2021/06/01 11:48:30;;;;;;;;;6.00;5.00;;;;;26.68;34.67;100772.63;4995681;28;45497;-47
2021/06/01 11:51:15;;;;;;;;;5.75;5.00;;;;;26.73;33.98;100786.59;4993850;28;45413;-48
2021/06/01 11:53:56;;;;;;;;;5.00;5.00;;;;;26.76;34.50;100777.94;4995558;28;45389;-46
2021/06/01 12:05:07;;;;;;;;;7.00;7.00;;;;;26.92;33.77;100765.72;4975679;28;45417;-45
2021/06/01 12:18:39;;;;;;;;;5.75;5.00;;;;;27.10;33.55;100767.03;4995579;28;45738;-46
2021/06/01 12:21:18;;;;;;;;;6.75;5.00;;;;;27.11;33.52;100761.28;4995936;28;45349;-52
2021/06/01 12:23:49;;;;;;;;;7.25;5.25;;;;;27.17;33.37;100750.50;4995068;28;45586;-51
2021/06/01 12:26:23;;;;;;;;;5.00;4.75;;;;;27.20;33.40;100761.13;4994983;28;46025;-44
2021/06/01 12:31:51;;;;;;;;;5.00;3.50;;;;;27.27;33.24;100761.97;4995642;28;45287;-49
2021/06/01 12:34:43;;;;;;;;;4.00;4.00;;;;;27.29;33.48;100751.56;4995273;28;45424;-47
2021/06/01 12:41:40;;;;;;;;;6.00;4.25;;;;;27.33;33.01;100763.88;4995354;28;46207;-51
2021/06/01 12:45:29;;;;;;;;;5.00;5.00;;;;;27.43;32.95;100750.53;4998803;28;45551;-49
2021/06/01 13:21:50;;;;;;;;;4.00;4.00;;;;;27.91;32.60;100740.34;4918147;28;45517;-39
2021/06/01 13:46:26;;;;;;;;;4.25;3.50;;;;;28.60;32.44;100715.91;4956944;28;45399;-44
2021/06/01 13:49:06;;;;;;;;;4.75;4.00;;;;;28.68;32.22;100723.09;4959301;28;45366;-45
2021/06/01 13:56:45;;;;;;;;;5.00;4.00;;;;;28.84;31.89;100716.22;4976152;28;45343;-49
2021/06/01 13:59:33;;;;;;;;;4.25;4.25;;;;;28.85;32.02;100712.38;4964235;28;45399;-49
2021/06/01 14:09:28;;;;;;;;;5.00;4.00;;;;;28.89;32.83;100708.13;4966279;28;45465;-40